events-overview

Lake Hickory Y Triathlon

 

Overall Men

Hickory, NC 6/08/2013 07:30AM

** Results are for the private use of participants and are the Intellectual Property of Set Up Events. Unauthorized use of these results is prohibited.

Place Bib Sex Age Cat. NAME CITY/STATE Rank SWIM Rank T1 Rank BIKE Rank T2 Rank RUN PENALTY Time DQ
1259M25OMTyler JordanCharlotte NC600:05:501400:00:45100:38:491000:00:39300:17:38 01:03:39 
21M29OMJames HaycraftCharlotte NC100:05:241800:00:47200:39:09800:00:38400:17:57 01:03:53 
39M44MMMike SelleCharlotte NC200:05:374000:00:56300:40:581300:00:41900:18:37 01:06:48 
4183M23 Cory TretskyRock Hill SC1300:06:12800:00:41400:41:161200:00:41600:18:01 01:06:49 
569M16 Jack RatterreeCharlotte NC500:05:503700:00:552400:43:551700:00:43200:17:20 01:08:40 
6186M45 Richard BaileyChapel Hill NC3000:07:05700:00:41500:41:186200:00:551200:18:45 01:08:42 
74M40MMAndrew FletcherWaxhaw NC400:05:413900:00:561500:43:05500:00:36800:18:35 01:08:50 
8257M40 John DeweyGreensboro NC700:05:571000:00:441400:43:031100:00:391000:18:39 01:08:59 
9106M32 Chad CrockfordCharlotte NC2700:06:541300:00:452200:43:50600:00:36100:17:03 01:09:06 
10148M40 Drew BrashearCharlotte NC900:06:012200:00:48800:42:22300:00:351700:19:59 01:09:43 
1166M39 Brian CoutureCharlotte NC1500:06:305400:01:05600:41:431500:00:432300:20:32 01:10:31 
12179M21 Cameron ChappellClemmons NC4200:07:51900:00:431000:42:315200:00:521300:18:58 01:10:53 
1315M46 Erik JohnsonCornelius NC3800:07:462000:00:47700:42:043600:00:481600:19:52 01:11:15 
14113M14 Ryan BrownRaleigh NC1100:06:06200:00:333000:44:513400:00:471500:19:24 01:11:39 
15144M26 William HarrisRaleigh NC1000:06:056200:01:073200:45:1111900:01:24500:18:00 01:11:45 
1648M37 Michael SternHuntersville NC1400:06:213400:00:54900:42:292300:00:453000:21:28 01:11:56 
1799M52 Clayton ClarkPinehurst NC4000:07:491900:00:471200:42:50400:00:352100:20:13 01:12:13 
1810M57MMJonathan FarberChapel Hill NC2300:06:516000:01:071700:43:196100:00:542200:20:18 01:12:26 
19166M55 Bruce GeltmanHickory NC2600:06:53300:00:383100:44:568300:01:011400:19:03 01:12:29 
20112M28 Sean GormanCharlotte NC1700:06:407500:01:182100:43:295900:00:542500:20:46 01:13:04 
2114M44MMChris ThomasStony Point NC2000:06:43500:00:381100:42:372500:00:464600:22:23 01:13:05 
22199M52 Ronnie HorneRaleigh NC3100:07:174500:01:001300:42:541400:00:413700:21:41 01:13:32 
23143M38 Jonathan WiseCharlotte NC6100:08:214100:00:572000:43:294400:00:501900:20:04 01:13:39 
24109M41 John GroomanWilmington NC1800:06:415700:01:062300:43:514900:00:513500:21:38 01:14:05 
2568M37 Clayton RobertsRaleigh NC5500:08:121500:00:451600:43:064300:00:503300:21:34 01:14:25 
26162M41 Hunter BoydLincolnton NC3300:07:262600:00:502800:44:354000:00:492700:21:07 01:14:45 
27184M30 Witali SpulingDessau XX5000:07:56600:00:401900:43:24100:00:334500:22:13 01:14:45 
28167M24 Ryan PahlWilmington NC2800:06:551100:00:452900:44:474800:00:513900:21:44 01:14:59 
2952M48 Herbert KrabelWinston-Salem NC9000:09:075000:01:021800:43:247500:00:584100:21:59 01:16:28 
308M22OMGeorge KuehnertMorganton NC300:05:39100:00:338600:51:30700:00:371100:18:41 01:16:57 
PlaceBibSexAgeCat.NAMECITY/STATERankSWIMRankT1RankBIKERankT2RankRUNPENALTYTimeDQ
31178M58 Rick ParsonsCharlotte NC6600:08:273300:00:542600:44:176300:00:555300:22:47 01:17:18 
3279M30CBlake HauglandMooresville NC5300:08:071600:00:463400:46:083200:00:473400:21:37 01:17:23 
33169M39 Scott WaitCharlotte NC2100:06:435300:01:043300:45:2312400:01:265600:22:54 01:17:28 
34110M42 Joey PardueAdvance NC7700:08:463500:00:552500:44:024700:00:516600:23:27 01:17:57 
35174M14 Joe EudyCharlotte NC800:06:013600:00:557600:50:224500:00:501800:20:01 01:18:06 
36138M40 Cameron BeddingfieldLincolnton NC9100:09:08400:00:383600:46:341900:00:432800:21:10 01:18:10 
3720M37 Lawrence ThompsonHickory NC4100:07:492900:00:523900:46:422200:00:454400:22:05 01:18:11 
3829M58 Tom TorkildsenMatthews NC4300:07:517200:01:152700:44:286000:00:547300:23:47 01:18:13 
3931M27 Chris FundanishRaleigh NC3200:07:252800:00:514900:48:122700:00:463200:21:33 01:18:46 
4077M25 Jason GilbertStanley NC2900:06:583100:00:525700:48:583000:00:473600:21:39 01:19:12 
41141M20 Lance IannucciHarrisburg NC9900:09:198000:01:244100:47:1311400:01:192000:20:12 01:19:25 
42238M16 Dallas HandyWilkesboro NC1200:06:114800:01:016200:49:307000:00:574200:22:01 01:19:37 
43154M50 Mark CongerWinston-Salem NC1600:06:334400:00:595100:48:2710800:01:165200:22:44 01:19:57 
44147M39 Rich ShearingFort Mill SC3700:07:453200:00:534800:48:042900:00:464800:22:31 01:19:58 
45140M36 Chris XistrisWaxhaw NC1900:06:428300:01:254200:47:1911500:01:206200:23:20 01:20:05 
46203M44 Cary GentrySummerfield NC4700:07:542300:00:495900:49:125400:00:523100:21:28 01:20:13 
47197M45MCDirk WuenscheTega Cay SC6700:08:296100:01:073700:46:365000:00:516100:23:19 01:20:21 
48256M44 Steven LindseyCharlotte NC2400:06:517800:01:213800:46:389200:01:108200:24:35 01:20:33 
49191M53 Steve HortonMorganton NC6400:08:241200:00:455300:48:427800:00:594300:22:03 01:20:51 
5022M37CBen DukeHickory NC3400:07:274200:00:585600:48:575500:00:525100:22:42 01:20:53 
5156M31 James EtringerMount Airy NC2200:06:469800:01:378400:51:1110600:01:152400:20:45 01:21:32 
52253M46 Patrick BradshawMorganton NC8900:09:026500:01:094600:47:384100:00:506500:23:25 01:22:02 
5313M22OMHunter TownsendTaylorsville NC6800:08:297000:01:139900:53:158700:01:06700:18:32 01:22:33 
54172M37CMichael FoessHuntersvile NC5800:08:154300:00:584400:47:226900:00:578900:25:09 01:22:39 
5563M49 Jeff BovaisPinehurst NC2500:06:518200:01:256800:49:549800:01:117200:23:39 01:22:58 
56153M46 Tim BrothertonMooresville NC12800:10:382700:00:513500:46:1711100:01:177500:23:58 01:22:59 
57246M23 Aaron LucasCharlotte NC5600:08:122100:00:475200:48:293300:00:478500:24:49 01:23:03 
58237M39 Stephen HoranHickory NC11800:10:066300:01:096300:49:33900:00:393800:21:42 01:23:07 
5950M57 Pete CraymerHickory NC3900:07:477700:01:208100:50:454600:00:504700:22:29 01:23:09 
60206M34 Wesley WightmanHickory NC8100:08:526600:01:105800:49:046700:00:566400:23:24 01:23:25 
6192M34 Mark HoffmannAsheville NC3500:07:3010900:01:476600:49:5012200:01:255900:23:10 01:23:40 
PlaceBibSexAgeCat.NAMECITY/STATERankSWIMRankT1RankBIKERankT2RankRUNPENALTYTimeDQ
6280M42 Todd StempienLincolnton NC7200:08:378400:01:266500:49:466500:00:566700:23:29 01:24:11 
6394M50 Tom MaguireHickory NC5700:08:137300:01:167800:50:2810100:01:125800:23:09 01:24:15 
64132M37 Kenneth HartleyPfafftown NC8200:08:535100:01:036900:49:579400:01:107000:23:37 01:24:37 
65252M39 Greg FreyCharlotte NC5900:08:177900:01:237500:50:225700:00:537600:23:59 01:24:52 
66207M65 Richard KuhnCharlotte NC11700:09:579600:01:364700:47:529500:01:107900:24:26 01:24:58 
67119M36CDave WilberRock Hill SC7800:08:478500:01:287300:50:099600:01:106800:23:35 01:25:09 
6851M28 Matt GraingerArden NC8300:08:556900:01:126000:49:248500:01:048300:24:37 01:25:09 
6942M57 Wally WarrenCharlotte NC11200:09:492500:00:494500:47:317900:00:599800:26:06 01:25:12 
70151M13 Ryan FarrisMorganton NC4400:07:512400:00:499800:52:543700:00:495700:23:08 01:25:29 
7154M46MCMichael MorinGranite Falls NC3600:07:418900:01:304000:47:102800:00:4612100:28:35 01:25:40 
72222M39NMSteve McClureLincolnton NC7400:08:4115100:03:048500:51:189900:01:122900:21:28 01:25:41 
73135M63 Rob DuffySalisbury NC10200:09:265200:01:044300:47:2210000:01:1210700:26:53 01:25:56 
74115M37 Brandon MartinHickory NC4600:07:5314300:02:428000:50:454200:00:507400:23:48 01:25:56 
7583M32 Chris JohnsonFort Bragg NC11500:09:557400:01:166400:49:346600:00:568000:24:27 01:26:06 
76190M38 Scott GurleyWinston Salem NC10100:09:266800:01:126700:49:5110300:01:128800:25:00 01:26:40 
77108M52 David ThompsonHigh Point NC11400:09:5412500:02:077400:50:169100:01:096000:23:18 01:26:41 
78196M24 Brett PattersonCharlotte NC5400:08:105500:01:0611300:55:211600:00:434000:21:45 01:27:02 
79163M44 Corey SmithLexington NC12500:10:264600:01:006100:49:243800:00:499400:25:40 01:27:17 
80102M43 Lance FossMorganton NC9400:09:1111000:01:499500:52:377300:00:585500:22:52 01:27:25 
8143M38 Mark GraggHudson NC9500:09:156700:01:105500:48:5610900:01:1610900:26:57 01:27:34 
82173M41 Robert SteereWaxhaw NC9800:09:1810300:01:449200:52:047200:00:577100:23:39 01:27:40 
8373M43ZMRobert DealHickory NC8800:09:009500:01:345000:48:1412600:01:2811600:27:34 01:27:48 
8418M43MCSean GreenCharlotte NC5100:07:585600:01:068300:51:066800:00:5710800:26:57 01:28:01 
8539M21 Colin GreatwoodMidlothian VA8500:08:553800:00:5610500:53:3713600:01:376300:23:21 01:28:24 
8687M29 Sean ClarkRaeford NC12400:10:245800:01:0610300:53:357600:00:585400:22:48 01:28:50 
8761M50 Jeff HarrisDavidson NC4900:07:5612000:01:599100:51:588600:01:059900:26:07 01:29:03 
88146M51 Mitch ClineLincolnton NC14300:11:469300:01:338200:50:468200:01:017700:24:06 01:29:10 
8970M32 Gregory LeeCharlotte NC9300:09:0810400:01:447000:50:009300:01:1011300:27:12 01:29:12 
90124M33 Michael EvansDenver NC6900:08:298700:01:288900:51:516400:00:5510300:26:35 01:29:17 
91103M24 Joe CourtrightWaxhaw NC12100:10:124700:01:0110000:53:243100:00:477800:24:07 01:29:29 
9297M48 Jose OviedoHickory NC7300:08:3713100:02:219600:52:4512500:01:278600:24:58 01:30:07 
PlaceBibSexAgeCat.NAMECITY/STATERankSWIMRankT1RankBIKERankT2RankRUNPENALTYTimeDQ
93215M47ZMRick KilpatrickConnellys Springs NC7900:08:4810200:01:4312300:56:341800:00:434900:22:31 01:30:18 
94244M37 Luke BurnesHickory NC8000:08:4914200:02:405400:48:4714500:01:4812200:28:35 01:30:38 
95216M43ZMJeff AldrichCharlotte NC8400:08:559100:01:337700:50:278800:01:0612500:29:12 01:31:11 
96114M58 Jim WilliamsWinston-Salem NC10900:09:437100:01:149400:52:1511600:01:2210600:26:48 01:31:20 
9732M42 Dustin NowatkaMorganton NC8600:08:5811600:01:577100:50:0311300:01:1912600:29:15 01:31:30 
98192M16 Collin HagueMatthews NC5200:08:068600:01:2811200:55:0711200:01:179200:25:35 01:31:32 
99221M41 Wes TaylorMorganton NC10300:09:3011800:01:5812100:56:182100:00:456900:23:37 01:32:05 
10045M58 Steven ScottCharlotte NC13500:11:069200:01:337900:50:3014400:01:4811500:27:14 01:32:09 
101212M25NMJonathan BlackleyHuntersville NC9700:09:1713000:02:207200:50:0310500:01:1412800:29:17 01:32:10 
102254M44ZMFrank ArkoCornelius NC7100:08:3211900:01:5811400:55:4411000:01:178400:24:42 01:32:11 
103100M35 Bradley KingWinston Salem NC12300:10:1513300:02:228800:51:4015200:02:149600:26:00 01:32:29 
104142M30 Anthony HenageChapel Hill NC4500:07:529700:01:3611700:55:49200:00:3411200:27:11 01:33:00 
10558M31 Morgan BlaisdellGreensboro NC14500:12:0012600:02:0810900:54:4513400:01:345000:22:39 01:33:03 
106248M42 Bruce BoucherCharlotte NC9600:09:1710600:01:4612200:56:293900:00:498700:25:00 01:33:19 
10735M50 Charles CampbellPfafftown NC11000:09:4410000:01:4110400:53:359700:01:1011400:27:13 01:33:21 
108198M52 Brent EllisMocksville NC13800:11:2411100:01:4910800:54:1912000:01:248100:24:34 01:33:29 
109205M40 Travis JusticeHuntersville NC6200:08:2410700:01:469000:51:5315100:02:1213000:29:23 01:33:37 
110204M28 Greg MascavageCharlotte NC7600:08:4212100:02:009700:52:5114300:01:4512300:28:38 01:33:55 
111250M61 David GarmonLincolnton NC9200:09:089900:01:4011500:55:4512700:01:309500:25:59 01:34:00 
112165M50 Mark BrazinskiMorganton NC12200:10:134900:01:0111000:54:4614200:01:4410200:26:24 01:34:05 
11382M17 Colton CastellHickory NC11100:09:479400:01:3310600:53:595800:00:5311900:27:58 01:34:08 
114105M19 Garrett WoodfordCharlotte NC8700:08:5913700:02:3514401:00:2413200:01:332600:20:49 01:34:19 
11536M48 Joe CampolaSpencer NC15100:12:5911200:01:508700:51:318100:01:0111000:27:03 01:34:21 
11634M48 Doug RobinsonConnelly Springs NC11300:09:533000:00:529300:52:135300:00:5213500:30:43 01:34:31 
117180M32 Wesley BishopCharlotte NC           01:35:03 
11860M50MCMark RomeoHickory NC4800:07:557600:01:1910700:53:599000:01:0713700:30:59 01:35:17 
11991M41 Brennan DanileCharlotte NC10600:09:3514500:02:4610200:53:3314600:01:4911800:27:46 01:35:28 
12030M34 Dan MorrisTega Cay SC6300:08:246400:01:0914100:59:398400:01:039100:25:33 01:35:46 
121220M24NMRobert BostBoone NC6500:08:2614600:02:4712400:56:437700:00:5811100:27:03 01:35:56 
122177M44 Mark FlemingSimpsonville SC12700:10:375900:01:0712900:57:3811700:01:2210000:26:14 01:36:56 
123126M37 Kyle BrownCreedmoor NC11600:09:5610100:01:4213800:58:3910200:01:129300:25:40 01:37:07 
PlaceBibSexAgeCat.NAMECITY/STATERankSWIMRankT1RankBIKERankT2RankRUNPENALTYTimeDQ
12417M53 Paul HarrisonWinston-Salem NC13100:10:5512200:02:0511600:55:487100:00:5711700:27:34 01:37:17 
125130M49 Cameron RinkerMooresville NC7000:08:3214800:02:5910100:53:2515400:02:3413400:30:38 01:38:07 
12690M35 Vic BennettMarietta GA12600:10:3013900:02:3712700:57:2313000:01:3310100:26:19 01:38:19 
127139M36 Phillip OwenChapel Hill NC14600:12:0811300:01:5213300:58:1214800:02:049000:25:31 01:39:45 
128137M48 David HaasHickory NC15500:14:1710500:01:4511800:55:5712800:01:3010400:26:35 01:40:02 
12941M54 James FrizzellHickory NC14900:12:3214900:03:0312500:57:0013500:01:359700:26:01 01:40:09 
130242M52MCJohn ClarkeHickory NC13700:11:2112700:02:1511100:54:528000:00:5913900:31:11 01:40:36 
131157M53 Bill HowlandGreensboro NC10700:09:3614000:02:3813100:57:558900:01:0613100:29:26 01:40:40 
132134M56 Ted ElliottOttawa OH13000:10:5311700:01:5814801:01:002400:00:4510500:26:48 01:41:22 
133129M58 David LawrenceMorganton NC10500:09:3412800:02:1513400:58:1713900:01:3913200:30:02 01:41:45 
134182M27 Samuel WalkerCharlotte NC7500:08:4213500:02:3212600:57:0313300:01:3414600:32:21 01:42:09 
135241M15 Peter ClarkeHickory NC13400:10:5913400:02:2711900:56:087400:00:5814300:31:48 01:42:18 
13611M24 Hayden SmithLincolnton NC14400:11:478800:01:2814000:59:385100:00:5212400:28:47 01:42:31 
13749M29 Tyler MatthewsHickory NC14700:12:1514400:02:4212000:56:103500:00:4714400:31:49 01:43:41 
138111M24 Travis SpeerCharlotte NC13300:10:5711400:01:5414501:00:2410700:01:1612900:29:21 01:43:50 
13925M33 Justin McCleeryAsheville NC12000:10:1013200:02:2113700:58:3712300:01:2614100:31:27 01:44:00 
14040M53 Max GoellingWinston Salem NC10400:09:331700:00:4714901:02:182600:00:4613600:30:58 01:44:21 
141255M20NMMatthew ArkoCornelius NC14800:12:2515700:04:0612800:57:2813100:01:3312700:29:16 01:44:47 
142145M68 Smitty FlynnCharlotte NC13900:11:349000:01:3013900:58:4914100:01:4314500:32:07 01:45:41 
143214M28NMWeston DrumMaiden NC14100:11:4512900:02:1914200:59:5114700:01:5613300:30:34 01:46:23 
14438M33 Justin BobbittTroutman NC13200:10:5715300:03:1515001:02:5814000:01:3912000:28:21 01:47:08 
145213M26NMIan TaylorSeneca SC15300:13:1213600:02:3313000:57:3815000:02:1114200:31:37 01:47:09 
146122M57 Bill HarrisonJonesboro AR11900:10:1012300:02:0614701:00:3813700:01:3814900:33:11 01:47:40 
147152M48 Edward Hedrick IVTaylorsville NC13600:11:1915000:03:0414300:59:535600:00:5214800:32:48 01:47:54 
148239M46 Steve HandyWilkesboro NC12900:10:4410800:01:4613200:58:0612100:01:2415300:37:08 01:49:07 
149149M40 Reza RezaiCornelius NC10800:09:3911500:01:5613500:58:2312900:01:3015500:38:42 01:50:09 
15057M27 Andrew WiesnerCharlotte NC6000:08:198100:01:2415301:06:4213800:01:3815000:33:24 01:51:25 
15144M56MCDennis KellyCharlotte NC15000:12:3914700:02:4814601:00:3615300:02:2915200:35:01 01:53:31 
152240M42MCJason BerryDavidson NC10000:09:2214100:02:4015401:08:1611800:01:2314700:32:28 01:54:06 
153202M52 Eric BucklandHickory NC14000:11:4415500:03:3813600:58:3315500:03:0215400:38:26 01:55:21 
154247M43MCJim DobsonCharlotte NC15600:14:2112400:02:0615101:03:0614900:02:0915600:38:44 02:00:24 
PlaceBibSexAgeCat.NAMECITY/STATERankSWIMRankT1RankBIKERankT2RankRUNPENALTYTimeDQ
15572M40 Salil BhendeHickory NC15700:14:4513800:02:3615501:13:022000:00:4314000:31:12 02:02:16 
15678M40 Marshall MilesCharlotte NC15200:13:1015600:03:3915601:15:1510400:01:1413800:31:02 02:04:17 
157236M13PCToby LinnFayetteville NC15400:14:1115200:03:1015201:06:3615600:06:5615100:34:45 02:05:37 

** Results are for the private use of participants and are the Intellectual Property of Set Up Events. Unauthorized use of these results is prohibited.